createdAt,value
2023-01-02T00:00:21.454Z,4.60
2023-01-02T00:10:25.645Z,5.00
2023-01-02T00:20:28.322Z,5.68
2023-01-02T00:30:37.917Z,5.55
2023-01-02T00:40:41.114Z,6.13
2023-01-02T00:50:45.193Z,7.00
2023-01-02T01:00:48.517Z,6.55
2023-01-02T01:10:52.748Z,8.00
2023-01-02T01:20:55.434Z,9.10
2023-01-02T01:31:04.416Z,6.80
2023-01-02T01:41:07.423Z,7.43
2023-01-02T01:51:11.950Z,7.35
2023-01-02T02:01:17.620Z,7.85
2023-01-02T02:11:22.249Z,7.68
2023-01-02T02:21:42.213Z,7.80
2023-01-02T02:31:51.915Z,7.93
2023-01-02T02:42:01.556Z,8.03
2023-01-02T02:52:12.052Z,6.80
2023-01-02T03:02:16.770Z,7.13
2023-01-02T03:12:32.797Z,6.20
2023-01-02T03:22:39.062Z,6.50
2023-01-02T03:32:45.162Z,6.93
2023-01-02T03:42:52.878Z,6.22
2023-01-02T03:52:57.283Z,5.03
2023-01-02T04:03:07.244Z,5.15
2023-01-02T04:13:18.363Z,5.20
2023-01-02T04:23:24.746Z,5.78
2023-01-02T04:33:30.375Z,5.07
2023-01-02T04:43:33.048Z,5.40
2023-01-02T04:53:37.066Z,4.53
2023-01-02T05:03:40.430Z,5.40
2023-01-02T05:13:45.228Z,4.60
2023-01-02T05:23:50.519Z,4.43
2023-01-02T05:33:54.823Z,3.97
2023-01-02T05:43:57.537Z,4.82
2023-01-02T05:54:01.764Z,5.28
2023-01-02T06:04:04.639Z,5.30
2023-01-02T06:14:10.529Z,4.75
2023-01-02T06:24:13.651Z,3.67
2023-01-02T06:34:17.786Z,4.93
2023-01-02T06:44:20.500Z,4.72
2023-01-02T06:54:24.543Z,4.43
2023-01-02T07:04:27.331Z,4.38
2023-01-02T07:14:31.391Z,4.18
2023-01-02T07:24:34.269Z,3.60
2023-01-02T07:34:38.296Z,4.75
2023-01-02T07:44:40.975Z,4.18
2023-01-02T07:54:44.990Z,4.00
2023-01-02T08:04:47.685Z,3.70
2023-01-02T08:14:51.751Z,4.28
2023-01-02T08:24:54.436Z,3.75
2023-01-02T08:34:58.521Z,1.90
2023-01-02T08:45:01.191Z,1.50
2023-01-02T08:55:05.764Z,1.70
2023-01-02T09:05:08.882Z,1.60
2023-01-02T09:15:13.213Z,1.42
2023-01-02T09:25:22.029Z,1.15
2023-01-02T09:35:28.048Z,0.80
2023-01-02T09:45:31.377Z,0.88
2023-01-02T09:55:45.074Z,1.52
2023-01-02T10:06:14.027Z,1.17
2023-01-02T10:16:23.507Z,1.10
2023-01-02T10:26:33.216Z,0.90
2023-01-02T10:36:41.539Z,0.90
2023-01-02T10:46:44.291Z,1.10
2023-01-02T10:56:51.196Z,1.30
2023-01-02T11:06:57.793Z,1.00
2023-01-02T11:17:06.514Z,2.10
2023-01-02T11:27:10.634Z,1.15
2023-01-02T11:37:18.598Z,0.95
2023-01-02T11:47:29.613Z,1.50
2023-01-02T11:57:42.779Z,1.95
2023-01-02T12:07:47.163Z,1.15
2023-01-02T12:18:02.154Z,1.27
2023-01-02T12:28:14.368Z,1.27
2023-01-02T12:38:33.218Z,1.90
2023-01-02T12:48:53.135Z,2.03
2023-01-02T12:59:11.399Z,1.40
2023-01-02T13:09:22.728Z,1.35
2023-01-02T13:19:36.456Z,1.00
2023-01-02T13:29:43.790Z,1.17
2023-01-02T13:39:51.363Z,2.55
2023-01-02T13:49:59.406Z,1.40
2023-01-02T14:00:06.373Z,1.60
2023-01-02T14:10:31.902Z,1.65
2023-01-02T14:20:38.509Z,2.85
2023-01-02T14:30:42.981Z,3.22
2023-01-02T14:40:48.578Z,2.10
2023-01-02T14:50:51.733Z,1.80
2023-01-02T15:01:04.156Z,2.15
2023-01-02T15:11:36.451Z,2.22
2023-01-02T15:21:41.066Z,2.58
2023-01-02T15:31:52.142Z,2.88
2023-01-02T15:41:57.993Z,2.30
2023-01-02T15:52:00.925Z,2.30
2023-01-02T16:02:05.142Z,3.28
2023-01-02T16:12:18.468Z,2.47
2023-01-02T16:22:26.234Z,2.78
2023-01-02T16:32:31.114Z,2.40
2023-01-02T16:42:37.584Z,3.05
2023-01-02T16:52:40.266Z,3.97
2023-01-02T17:02:44.540Z,2.00
2023-01-02T17:12:47.409Z,3.67
2023-01-02T17:22:51.648Z,3.50
2023-01-02T17:32:57.369Z,1.92
2023-01-02T17:43:06.342Z,3.33
2023-01-02T17:53:09.623Z,1.95
2023-01-02T18:03:14.228Z,2.30
2023-01-02T18:13:17.002Z,2.28
2023-01-02T18:23:21.305Z,2.40
2023-01-02T18:33:26.056Z,2.90
2023-01-02T18:43:35.413Z,3.42
2023-01-02T18:53:44.151Z,2.70
2023-01-02T19:03:49.345Z,2.40
2023-01-02T19:13:56.889Z,2.72
2023-01-02T19:24:12.635Z,2.63
2023-01-02T19:34:28.226Z,3.13
2023-01-02T19:44:32.524Z,2.95
2023-01-02T19:54:35.261Z,3.08
2023-01-02T20:04:39.341Z,2.83
2023-01-02T20:14:43.457Z,2.60
2023-01-02T20:24:47.898Z,3.20
2023-01-02T20:34:50.680Z,3.33
2023-01-02T20:44:54.761Z,2.85
2023-01-02T20:54:57.498Z,2.92
2023-01-02T21:05:01.619Z,2.80
2023-01-02T21:15:04.661Z,3.00
2023-01-02T21:25:09.338Z,3.17
2023-01-02T21:35:12.338Z,3.20
2023-01-02T21:45:16.720Z,3.45
2023-01-02T21:55:19.531Z,4.03
2023-01-02T22:05:23.594Z,4.13
2023-01-02T22:15:26.431Z,3.47
2023-01-02T22:25:30.510Z,3.15
2023-01-02T22:35:33.666Z,2.35
2023-01-02T22:45:44.761Z,2.85
2023-01-02T22:55:48.641Z,2.70
2023-01-02T23:05:52.896Z,2.50
2023-01-02T23:16:13.392Z,2.88
2023-01-02T23:26:18.444Z,3.17
2023-01-02T23:36:21.239Z,3.45
2023-01-02T23:46:25.352Z,3.60
2023-01-02T23:56:30.519Z,2.58
